Time,TemperatureF,DewpointF,PressureIn,WindDirection,WindDirectionDegrees,WindSpeedMPH,WindSpeedGustMPH,Humidity,HourlyPrecipIn,Conditions,Clouds,dailyrainin,SoftwareType,DateUTC
2013-04-05 00:02:00,50.0,48.0,27.71,NNW,340,1.0,4.0,94,0.00,,,0.22,,2013-04-05 07:02:00,
2013-04-05 00:12:00,50.0,48.0,27.71,NNW,340,1.0,4.0,94,0.00,,,0.22,,2013-04-05 07:12:00,
2013-04-05 00:22:00,50.0,48.0,27.73,SSE,150,0.0,1.0,93,0.00,,,0.22,,2013-04-05 07:22:00,
2013-04-05 00:32:00,50.0,48.0,27.72,SSE,149,0.0,1.0,94,0.00,,,0.22,,2013-04-05 07:32:00,
2013-04-05 00:42:00,50.0,48.0,27.72,SSE,149,0.0,1.0,94,0.00,,,0.22,,2013-04-05 07:42:00,
2013-04-05 00:52:00,49.0,47.0,27.72,SSE,149,0.0,1.0,94,0.00,,,0.22,,2013-04-05 07:52:00,
2013-04-05 01:02:00,49.0,47.0,27.72,SSE,161,0.0,1.0,94,0.00,,,0.22,,2013-04-05 08:02:00,
2013-04-05 01:12:00,49.0,47.0,27.72,SSE,161,0.0,1.0,94,0.00,,,0.22,,2013-04-05 08:12:00,
2013-04-05 01:22:00,49.0,48.0,27.72,SE,146,0.0,1.0,95,0.00,,,0.22,,2013-04-05 08:22:00,
2013-04-05 01:32:00,49.0,48.0,27.71,SW,215,0.0,1.0,95,0.00,,,0.22,,2013-04-05 08:32:00,
2013-04-05 01:42:00,49.0,48.0,27.71,SW,215,0.0,1.0,95,0.00,,,0.22,,2013-04-05 08:42:00,
2013-04-05 01:52:00,48.0,47.0,27.71,WSW,245,0.0,1.0,95,0.00,,,0.22,,2013-04-05 08:52:00,
2013-04-05 02:02:00,48.0,47.0,27.72,WSW,245,0.0,1.0,95,0.00,,,0.22,,2013-04-05 09:02:00,
2013-04-05 02:12:00,48.0,47.0,27.72,WSW,245,0.0,1.0,95,0.00,,,0.22,,2013-04-05 09:12:00,
2013-04-05 02:22:00,48.0,46.0,27.74,WSW,245,0.0,1.0,94,0.00,,,0.22,,2013-04-05 09:22:00,
2013-04-05 02:32:00,47.0,45.0,27.72,SW,233,0.0,1.0,94,0.00,,,0.22,,2013-04-05 09:32:00,
2013-04-05 02:42:00,47.0,45.0,27.72,SW,233,0.0,1.0,94,0.00,,,0.22,,2013-04-05 09:42:00,
2013-04-05 02:52:00,47.0,46.0,27.73,SSE,150,0.0,1.0,95,0.00,,,0.22,,2013-04-05 09:52:00,
2013-04-05 03:02:00,47.0,46.0,27.72,SW,218,0.0,2.0,95,0.00,,,0.22,,2013-04-05 10:02:00,
2013-04-05 03:12:00,47.0,46.0,27.72,SW,218,0.0,2.0,95,0.00,,,0.22,,2013-04-05 10:12:00,
2013-04-05 03:23:00,46.0,45.0,27.72,SW,219,0.0,1.0,95,0.00,,,0.22,,2013-04-05 10:23:00,
2013-04-05 03:32:00,47.0,46.0,27.73,NNW,340,3.0,6.0,96,0.00,,,0.22,,2013-04-05 10:32:00,
2013-04-05 03:42:00,47.0,46.0,27.73,NNW,340,3.0,6.0,96,0.00,,,0.22,,2013-04-05 10:42:00,
2013-04-05 03:52:00,48.0,46.0,27.72,NW,318,3.0,6.0,94,0.00,,,0.22,,2013-04-05 10:52:00,
2013-04-05 04:02:00,47.0,45.0,27.72,WNW,295,0.0,1.0,94,0.00,,,0.22,,2013-04-05 11:02:00,
2013-04-05 04:12:00,47.0,45.0,27.72,WNW,295,0.0,1.0,94,0.00,,,0.22,,2013-04-05 11:12:00,
2013-04-05 04:21:00,47.0,45.0,27.72,WNW,294,0.0,0.0,94,0.00,,,0.22,,2013-04-05 11:21:00,
2013-04-05 04:32:00,47.0,46.0,27.73,WNW,293,0.0,0.0,95,0.00,,,0.22,,2013-04-05 11:32:00,
2013-04-05 04:42:00,47.0,46.0,27.73,WNW,293,0.0,0.0,95,0.00,,,0.22,,2013-04-05 11:42:00,
2013-04-05 04:52:00,47.0,46.0,27.73,WNW,293,0.0,0.0,96,0.00,,,0.22,,2013-04-05 11:52:00,
2013-04-05 05:02:00,47.0,46.0,27.73,NNW,327,0.0,2.0,96,0.00,,,0.22,,2013-04-05 12:02:00,
2013-04-05 05:12:00,47.0,46.0,27.73,NNW,327,0.0,2.0,96,0.00,,,0.22,,2013-04-05 12:12:00,
2013-04-05 05:22:00,48.0,46.0,27.73,NNW,330,2.0,5.0,94,0.00,,,0.22,,2013-04-05 12:22:00,
2013-04-05 05:32:00,48.0,46.0,27.73,WNW,286,1.0,2.0,94,0.00,,,0.22,,2013-04-05 12:32:00,
2013-04-05 05:42:00,48.0,46.0,27.73,WNW,286,1.0,2.0,94,0.00,,,0.22,,2013-04-05 12:42:00,
2013-04-05 05:52:00,48.0,46.0,27.73,NW,304,5.0,8.0,93,0.00,,,0.22,,2013-04-05 12:52:00,
2013-04-05 06:02:00,48.0,46.0,27.73,NW,314,5.0,9.0,92,0.01,,,0.23,,2013-04-05 13:02:00,
2013-04-05 06:12:00,48.0,46.0,27.73,NW,314,5.0,9.0,92,0.01,,,0.23,,2013-04-05 13:12:00,
2013-04-05 06:22:00,48.0,46.0,27.73,NW,314,5.0,9.0,92,0.01,,,0.23,,2013-04-05 13:22:00,
2013-04-05 06:32:00,49.0,47.0,27.73,NW,315,6.0,11.0,92,0.02,,,0.24,,2013-04-05 13:32:00,
2013-04-05 06:42:00,49.0,47.0,27.73,NW,315,6.0,11.0,92,0.02,,,0.24,,2013-04-05 13:42:00,
2013-04-05 06:52:00,48.0,46.0,27.74,West,266,3.0,7.0,92,0.03,,,0.25,,2013-04-05 13:52:00,
2013-04-05 07:02:00,48.0,46.0,27.74,NW,326,4.0,6.0,94,0.02,,,0.25,,2013-04-05 14:02:00,
2013-04-05 07:12:00,48.0,46.0,27.74,NW,326,4.0,6.0,94,0.02,,,0.25,,2013-04-05 14:12:00,
2013-04-05 07:22:00,48.0,47.0,27.74,SE,126,0.0,2.0,95,0.03,,,0.26,,2013-04-05 14:22:00,
2013-04-05 07:36:00,48.0,47.0,27.74,SE,125,0.0,1.0,95,0.03,,,0.27,,2013-04-05 14:36:00,
2013-04-05 07:42:00,48.0,47.0,27.74,SE,125,0.0,1.0,95,0.03,,,0.27,,2013-04-05 14:42:00,
2013-04-05 07:52:00,48.0,47.0,27.75,SSE,165,0.0,1.0,95,0.02,,,0.27,,2013-04-05 14:52:00,
2013-04-05 08:02:00,48.0,47.0,27.75,West,277,1.0,2.0,95,0.03,,,0.28,,2013-04-05 15:02:00,
2013-04-05 08:12:00,48.0,47.0,27.75,West,277,1.0,2.0,95,0.03,,,0.28,,2013-04-05 15:12:00,
2013-04-05 08:22:00,48.0,47.0,27.75,West,277,1.0,2.0,95,0.03,,,0.28,,2013-04-05 15:22:00,
2013-04-05 08:33:00,48.0,47.0,27.75,West,267,0.0,2.0,96,0.01,,,0.28,,2013-04-05 15:33:00,
2013-04-05 08:42:00,48.0,47.0,27.75,West,267,0.0,2.0,96,0.01,,,0.28,,2013-04-05 15:42:00,
2013-04-05 08:53:00,50.0,49.0,27.75,NNE,18,0.0,1.0,95,0.01,,,0.28,,2013-04-05 15:53:00,
2013-04-05 09:02:00,49.0,47.0,27.75,NW,325,3.0,8.0,93,0.00,,,0.28,,2013-04-05 16:02:00,
2013-04-05 09:22:00,50.0,47.0,27.75,NNW,332,4.0,9.0,91,0.00,,,0.28,,2013-04-05 16:22:00,
2013-04-05 09:32:00,50.0,47.0,27.76,NW,318,7.0,12.0,91,0.00,,,0.28,,2013-04-05 16:32:00,
2013-04-05 09:42:00,50.0,47.0,27.76,NW,318,7.0,12.0,91,0.00,,,0.28,,2013-04-05 16:42:00,
2013-04-05 09:52:00,51.0,48.0,27.76,WNW,302,4.0,9.0,88,0.00,,,0.28,,2013-04-05 16:52:00,
2013-04-05 10:02:00,51.0,46.0,27.76,WNW,294,9.0,14.0,84,0.00,,,0.28,,2013-04-05 17:02:00,
2013-04-05 10:12:00,51.0,46.0,27.76,WNW,294,9.0,14.0,84,0.00,,,0.28,,2013-04-05 17:12:00,
2013-04-05 10:22:00,52.0,47.0,27.77,WNW,287,8.0,15.0,83,0.00,,,0.28,,2013-04-05 17:22:00,
2013-04-05 10:32:00,52.0,47.0,27.77,West,271,9.0,18.0,83,0.00,,,0.28,,2013-04-05 17:32:00,
2013-04-05 10:44:00,52.0,47.0,27.77,West,271,9.0,18.0,83,0.00,,,0.28,,2013-04-05 17:44:00,
2013-04-05 10:51:00,53.0,47.0,27.77,NW,312,9.0,15.0,79,0.00,,,0.28,,2013-04-05 17:51:00,
2013-04-05 11:02:00,53.0,46.0,27.77,WNW,300,4.0,13.0,77,0.00,,,0.28,,2013-04-05 18:02:00,
2013-04-05 11:12:00,53.0,46.0,27.77,WNW,300,4.0,13.0,77,0.00,,,0.28,,2013-04-05 18:12:00,
2013-04-05 11:22:00,55.0,47.0,27.78,NW,307,4.0,11.0,74,0.00,,,0.28,,2013-04-05 18:22:00,
2013-04-05 11:32:00,54.0,46.0,27.77,NW,316,8.0,13.0,75,0.00,,,0.28,,2013-04-05 18:32:00,
2013-04-05 11:42:00,54.0,46.0,27.77,NW,316,8.0,13.0,75,0.00,,,0.28,,2013-04-05 18:42:00,
2013-04-05 11:52:00,54.0,46.0,27.78,NNW,345,6.0,11.0,75,0.00,,,0.28,,2013-04-05 18:52:00,
2013-04-05 12:02:00,54.0,46.0,27.78,NW,321,6.0,13.0,74,0.00,,,0.28,,2013-04-05 19:02:00,
2013-04-05 12:13:00,54.0,46.0,27.78,NW,321,6.0,13.0,74,0.00,,,0.28,,2013-04-05 19:13:00,
2013-04-05 12:22:00,55.0,47.0,27.79,NW,311,8.0,14.0,73,0.00,,,0.28,,2013-04-05 19:22:00,
2013-04-05 12:32:00,55.0,47.0,27.79,NW,311,8.0,14.0,73,0.00,,,0.28,,2013-04-05 19:32:00,
2013-04-05 12:42:00,55.0,47.0,27.79,NW,311,8.0,14.0,73,0.00,,,0.28,,2013-04-05 19:42:00,
2013-04-05 12:52:00,55.0,47.0,27.79,NW,311,8.0,14.0,73,0.00,,,0.28,,2013-04-05 19:52:00,
2013-04-05 13:22:00,58.0,48.0,27.79,NNW,340,4.0,8.0,69,0.00,,,0.26,,2013-04-05 20:22:00,
2013-04-05 13:32:00,58.0,48.0,27.79,NNW,340,4.0,8.0,69,0.00,,,0.26,,2013-04-05 20:32:00,
2013-04-05 13:42:00,58.0,48.0,27.79,NNW,340,4.0,8.0,69,0.00,,,0.26,,2013-04-05 20:42:00,
2013-04-05 13:52:00,59.0,47.0,27.78,NW,321,7.0,11.0,64,0.00,,,0.22,,2013-04-05 20:52:00,
2013-04-05 14:02:00,59.0,47.0,27.78,NW,309,8.0,12.0,65,0.00,,,0.22,,2013-04-05 21:02:00,
2013-04-05 14:12:00,59.0,47.0,27.78,NW,309,8.0,12.0,65,0.00,,,0.22,,2013-04-05 21:12:00,
2013-04-05 14:22:00,59.0,47.0,27.79,North,349,4.0,9.0,65,0.00,,,0.22,,2013-04-05 21:22:00,
2013-04-05 14:32:00,60.0,47.0,27.78,NNW,329,7.0,12.0,63,0.00,,,0.19,,2013-04-05 21:32:00,
2013-04-05 14:42:00,60.0,47.0,27.78,NNW,329,7.0,12.0,63,0.00,,,0.19,,2013-04-05 21:42:00,
2013-04-05 14:53:00,61.0,47.0,27.78,NNW,328,7.0,17.0,61,0.00,,,0.19,,2013-04-05 21:53:00,
2013-04-05 15:02:00,62.0,47.0,27.78,North,354,8.0,13.0,58,0.00,,,0.19,,2013-04-05 22:02:00,
2013-04-05 15:12:00,62.0,47.0,27.78,North,354,8.0,13.0,58,0.00,,,0.19,,2013-04-05 22:12:00,
2013-04-05 15:22:00,62.0,48.0,27.78,West,259,9.0,14.0,60,0.00,,,0.19,,2013-04-05 22:22:00,
2013-04-05 15:32:00,62.0,48.0,27.78,WNW,293,8.0,13.0,60,0.00,,,0.15,,2013-04-05 22:32:00,
2013-04-05 15:42:00,62.0,48.0,27.78,WNW,293,8.0,13.0,60,0.00,,,0.15,,2013-04-05 22:42:00,
2013-04-05 15:52:00,62.0,48.0,27.78,WNW,285,6.0,15.0,60,0.00,,,0.15,,2013-04-05 22:52:00,
2013-04-05 16:02:00,62.0,47.0,27.77,West,281,10.0,16.0,58,0.00,,,0.15,,2013-04-05 23:02:00,
2013-04-05 16:12:00,62.0,47.0,27.77,West,281,10.0,16.0,58,0.00,,,0.15,,2013-04-05 23:12:00,
2013-04-05 16:22:00,61.0,46.0,27.77,West,278,7.0,14.0,58,0.00,,,0.15,,2013-04-05 23:22:00,
2013-04-05 16:32:00,61.0,46.0,27.78,WNW,293,6.0,13.0,58,0.00,,,0.10,,2013-04-05 23:32:00,
2013-04-05 16:42:00,61.0,46.0,27.78,WNW,293,6.0,13.0,58,0.00,,,0.10,,2013-04-05 23:42:00,
2013-04-05 16:52:00,61.0,47.0,27.78,NNW,340,3.0,8.0,59,0.00,,,0.10,,2013-04-05 23:52:00,
2013-04-05 17:02:00,61.0,46.0,27.78,NW,312,6.0,8.0,58,0.00,,,0.10,,2013-04-06 00:02:00,
2013-04-05 17:12:00,61.0,46.0,27.78,NW,312,6.0,8.0,58,0.00,,,0.10,,2013-04-06 00:12:00,
2013-04-05 17:22:00,60.0,46.0,27.78,WNW,303,8.0,14.0,60,0.00,,,0.10,,2013-04-06 00:22:00,
2013-04-05 17:32:00,59.0,45.0,27.78,NNW,338,9.0,15.0,60,0.00,,,0.07,,2013-04-06 00:32:00,
2013-04-05 17:42:00,59.0,45.0,27.78,NNW,338,9.0,15.0,60,0.00,,,0.07,,2013-04-06 00:42:00,
2013-04-05 17:52:00,59.0,46.0,27.78,WNW,295,7.0,11.0,62,0.00,,,0.07,,2013-04-06 00:52:00,
2013-04-05 18:02:00,58.0,45.0,27.78,WNW,285,7.0,12.0,61,0.00,,,0.07,,2013-04-06 01:02:00,
2013-04-05 18:12:00,58.0,45.0,27.78,WNW,285,7.0,12.0,61,0.00,,,0.07,,2013-04-06 01:12:00,
2013-04-05 18:22:00,58.0,44.0,27.79,NW,310,10.0,16.0,59,0.00,,,0.07,,2013-04-06 01:22:00,
2013-04-05 18:32:00,58.0,44.0,27.79,NW,314,9.0,13.0,60,0.00,,,0.06,,2013-04-06 01:32:00,
2013-04-05 18:42:00,58.0,44.0,27.79,NW,314,9.0,13.0,60,0.00,,,0.06,,2013-04-06 01:42:00,
2013-04-05 18:52:00,58.0,46.0,27.80,NW,325,10.0,15.0,64,0.00,,,0.06,,2013-04-06 01:52:00,
2013-04-05 19:02:00,57.0,45.0,27.79,West,280,6.0,12.0,65,0.00,,,0.06,,2013-04-06 02:02:00,
2013-04-05 19:12:00,57.0,45.0,27.79,West,280,6.0,12.0,65,0.00,,,0.06,,2013-04-06 02:12:00,
2013-04-05 19:22:00,56.0,44.0,27.79,NW,318,6.0,10.0,65,0.00,,,0.06,,2013-04-06 02:22:00,
2013-04-05 19:32:00,56.0,44.0,27.79,NW,326,5.0,11.0,65,0.00,,,0.06,,2013-04-06 02:32:00,
2013-04-05 19:42:00,56.0,44.0,27.79,NW,326,5.0,11.0,65,0.00,,,0.06,,2013-04-06 02:42:00,
2013-04-05 19:52:00,55.0,44.0,27.78,NW,312,5.0,9.0,66,0.00,,,0.06,,2013-04-06 02:52:00,
2013-04-05 20:02:00,55.0,44.0,27.78,WNW,290,4.0,9.0,66,0.00,,,0.06,,2013-04-06 03:02:00,
2013-04-05 20:12:00,55.0,44.0,27.78,WNW,290,4.0,9.0,66,0.00,,,0.06,,2013-04-06 03:12:00,
2013-04-05 20:22:00,55.0,44.0,27.77,West,278,6.0,9.0,67,0.00,,,0.06,,2013-04-06 03:22:00,
2013-04-05 20:33:00,55.0,44.0,27.77,WNW,294,7.0,11.0,66,0.00,,,0.06,,2013-04-06 03:33:00,
2013-04-05 20:42:00,55.0,44.0,27.77,WNW,294,7.0,11.0,66,0.00,,,0.06,,2013-04-06 03:42:00,
2013-04-05 20:53:00,54.0,44.0,27.78,WNW,297,5.0,12.0,68,0.00,,,0.06,,2013-04-06 03:53:00,
2013-04-05 21:03:00,54.0,43.0,27.78,West,275,6.0,11.0,67,0.00,,,0.06,,2013-04-06 04:03:00,
2013-04-05 21:13:00,54.0,43.0,27.78,West,275,6.0,11.0,67,0.00,,,0.06,,2013-04-06 04:13:00,
2013-04-05 21:22:00,54.0,43.0,27.78,West,275,6.0,11.0,67,0.00,,,0.06,,2013-04-06 04:22:00,
2013-04-05 21:32:00,53.0,43.0,27.78,NW,318,2.0,6.0,70,0.00,,,0.06,,2013-04-06 04:32:00,
2013-04-05 21:42:00,53.0,43.0,27.78,NW,318,2.0,6.0,70,0.00,,,0.06,,2013-04-06 04:42:00,
2013-04-05 21:53:00,53.0,44.0,27.77,NW,314,6.0,10.0,71,0.00,,,0.06,,2013-04-06 04:53:00,
2013-04-05 22:02:00,53.0,44.0,27.77,NW,305,5.0,10.0,71,0.00,,,0.06,,2013-04-06 05:02:00,
2013-04-05 22:12:00,53.0,44.0,27.77,NW,305,5.0,10.0,71,0.00,,,0.06,,2013-04-06 05:12:00,
2013-04-05 22:22:00,52.0,43.0,27.77,NW,316,3.0,5.0,72,0.00,,,0.06,,2013-04-06 05:22:00,
2013-04-05 22:32:00,52.0,44.0,27.78,NNW,328,1.0,3.0,74,0.00,,,0.06,,2013-04-06 05:32:00,
2013-04-05 22:42:00,52.0,44.0,27.78,NNW,328,1.0,3.0,74,0.00,,,0.06,,2013-04-06 05:42:00,
2013-04-05 22:51:00,52.0,44.0,27.78,NNW,328,1.0,3.0,74,0.00,,,0.06,,2013-04-06 05:51:00,
2013-04-05 23:02:00,52.0,44.0,27.77,WNW,303,3.0,9.0,74,0.00,,,0.06,,2013-04-06 06:02:00,
2013-04-05 23:11:00,52.0,44.0,27.77,WNW,303,3.0,9.0,74,0.00,,,0.06,,2013-04-06 06:11:00,
2013-04-05 23:22:00,52.0,44.0,27.77,WNW,303,3.0,9.0,74,0.00,,,0.06,,2013-04-06 06:22:00,
2013-04-05 23:32:00,51.0,44.0,27.76,WNW,297,6.0,11.0,76,0.00,,,0.06,,2013-04-06 06:32:00,
2013-04-05 23:42:00,51.0,44.0,27.76,WNW,297,6.0,11.0,76,0.00,,,0.06,,2013-04-06 06:42:00,
2013-04-05 23:52:00,51.0,44.0,27.76,NNW,345,6.0,10.0,77,0.00,,,0.06,,2013-04-06 06:52:00,